sensor_id;sensor_type;location;lat;lon;timestamp;P1;durP1;ratioP1;P2;durP2;ratioP2
36321;SDS011;23564;48.290;11.460;2022-12-16T00:02:13;68.70;;;24.67;;
36321;SDS011;23564;48.290;11.460;2022-12-16T00:04:39;59.10;;;21.58;;
36321;SDS011;23564;48.290;11.460;2022-12-16T00:07:05;70.47;;;26.27;;
36321;SDS011;23564;48.290;11.460;2022-12-16T00:09:30;60.78;;;21.92;;
36321;SDS011;23564;48.290;11.460;2022-12-16T00:11:56;64.10;;;23.95;;
36321;SDS011;23564;48.290;11.460;2022-12-16T00:14:21;57.50;;;21.95;;
36321;SDS011;23564;48.290;11.460;2022-12-16T00:16:47;60.80;;;22.65;;
36321;SDS011;23564;48.290;11.460;2022-12-16T00:19:13;62.20;;;23.50;;
36321;SDS011;23564;48.290;11.460;2022-12-16T00:21:38;57.15;;;24.05;;
36321;SDS011;23564;48.290;11.460;2022-12-16T00:24:04;59.47;;;23.48;;
36321;SDS011;23564;48.290;11.460;2022-12-16T00:26:29;49.00;;;21.20;;
36321;SDS011;23564;48.290;11.460;2022-12-16T00:28:55;54.88;;;21.33;;
36321;SDS011;23564;48.290;11.460;2022-12-16T00:31:22;54.10;;;20.95;;
36321;SDS011;23564;48.290;11.460;2022-12-16T00:33:48;55.95;;;21.42;;
36321;SDS011;23564;48.290;11.460;2022-12-16T00:36:14;56.58;;;21.98;;
36321;SDS011;23564;48.290;11.460;2022-12-16T00:38:39;57.17;;;21.77;;
36321;SDS011;23564;48.290;11.460;2022-12-16T00:41:05;57.10;;;21.05;;
36321;SDS011;23564;48.290;11.460;2022-12-16T00:43:31;49.72;;;19.98;;
36321;SDS011;23564;48.290;11.460;2022-12-16T00:45:56;44.20;;;18.17;;
36321;SDS011;23564;48.290;11.460;2022-12-16T00:48:22;50.95;;;19.15;;
36321;SDS011;23564;48.290;11.460;2022-12-16T00:50:48;49.58;;;19.45;;
36321;SDS011;23564;48.290;11.460;2022-12-16T00:53:15;48.67;;;19.73;;
36321;SDS011;23564;48.290;11.460;2022-12-16T00:55:40;46.20;;;18.15;;
36321;SDS011;23564;48.290;11.460;2022-12-16T00:58:06;46.58;;;18.27;;
36321;SDS011;23564;48.290;11.460;2022-12-16T01:00:32;47.10;;;17.95;;
36321;SDS011;23564;48.290;11.460;2022-12-16T01:02:57;39.80;;;16.58;;
36321;SDS011;23564;48.290;11.460;2022-12-16T01:05:23;42.55;;;18.77;;
36321;SDS011;23564;48.290;11.460;2022-12-16T01:07:53;52.85;;;19.02;;
36321;SDS011;23564;48.290;11.460;2022-12-16T01:10:19;49.42;;;20.50;;
36321;SDS011;23564;48.290;11.460;2022-12-16T01:12:45;44.60;;;19.42;;
36321;SDS011;23564;48.290;11.460;2022-12-16T01:15:10;45.35;;;19.60;;
36321;SDS011;23564;48.290;11.460;2022-12-16T01:17:37;53.63;;;20.92;;
36321;SDS011;23564;48.290;11.460;2022-12-16T01:20:04;53.47;;;21.67;;
36321;SDS011;23564;48.290;11.460;2022-12-16T01:22:31;55.05;;;23.20;;
36321;SDS011;23564;48.290;11.460;2022-12-16T01:24:57;53.17;;;21.02;;
36321;SDS011;23564;48.290;11.460;2022-12-16T01:27:23;44.35;;;19.15;;
36321;SDS011;23564;48.290;11.460;2022-12-16T01:29:49;54.67;;;22.45;;
36321;SDS011;23564;48.290;11.460;2022-12-16T01:32:14;59.42;;;23.58;;
36321;SDS011;23564;48.290;11.460;2022-12-16T01:34:40;60.63;;;24.88;;
36321;SDS011;23564;48.290;11.460;2022-12-16T01:37:06;53.63;;;23.48;;
36321;SDS011;23564;48.290;11.460;2022-12-16T01:39:36;53.35;;;22.77;;
36321;SDS011;23564;48.290;11.460;2022-12-16T01:42:01;56.85;;;23.10;;
36321;SDS011;23564;48.290;11.460;2022-12-16T01:44:27;54.22;;;22.80;;
36321;SDS011;23564;48.290;11.460;2022-12-16T01:46:57;54.35;;;22.80;;
36321;SDS011;23564;48.290;11.460;2022-12-16T01:49:31;51.92;;;22.63;;
36321;SDS011;23564;48.290;11.460;2022-12-16T01:52:23;55.70;;;22.85;;
36321;SDS011;23564;48.290;11.460;2022-12-16T01:54:55;52.25;;;21.58;;
36321;SDS011;23564;48.290;11.460;2022-12-16T01:57:37;53.15;;;21.80;;
36321;SDS011;23564;48.290;11.460;2022-12-16T02:00:08;62.20;;;21.55;;
36321;SDS011;23564;48.290;11.460;2022-12-16T02:02:34;48.95;;;21.30;;
36321;SDS011;23564;48.290;11.460;2022-12-16T02:05:01;47.65;;;21.00;;
36321;SDS011;23564;48.290;11.460;2022-12-16T02:10:32;53.55;;;23.27;;
36321;SDS011;23564;48.290;11.460;2022-12-16T02:13:05;63.75;;;24.38;;
36321;SDS011;23564;48.290;11.460;2022-12-16T02:15:57;55.90;;;22.70;;
36321;SDS011;23564;48.290;11.460;2022-12-16T02:18:54;60.22;;;23.75;;
36321;SDS011;23564;48.290;11.460;2022-12-16T02:21:39;52.53;;;22.05;;
36321;SDS011;23564;48.290;11.460;2022-12-16T02:24:29;63.88;;;24.42;;
36321;SDS011;23564;48.290;11.460;2022-12-16T02:35:54;55.40;;;22.58;;
36321;SDS011;23564;48.290;11.460;2022-12-16T02:38:33;55.63;;;22.88;;
36321;SDS011;23564;48.290;11.460;2022-12-16T02:41:22;56.70;;;21.67;;
36321;SDS011;23564;48.290;11.460;2022-12-16T02:44:02;50.08;;;20.90;;
36321;SDS011;23564;48.290;11.460;2022-12-16T02:46:31;59.13;;;23.05;;
36321;SDS011;23564;48.290;11.460;2022-12-16T02:49:06;54.58;;;22.60;;
36321;SDS011;23564;48.290;11.460;2022-12-16T02:51:36;58.17;;;23.63;;
36321;SDS011;23564;48.290;11.460;2022-12-16T02:54:02;58.25;;;23.65;;
36321;SDS011;23564;48.290;11.460;2022-12-16T02:56:38;56.47;;;22.55;;
36321;SDS011;23564;48.290;11.460;2022-12-16T02:59:32;55.22;;;21.67;;
36321;SDS011;23564;48.290;11.460;2022-12-16T03:02:23;55.85;;;22.77;;
36321;SDS011;23564;48.290;11.460;2022-12-16T03:07:55;50.95;;;21.92;;
36321;SDS011;23564;48.290;11.460;2022-12-16T03:10:24;51.53;;;22.80;;
36321;SDS011;23564;48.290;11.460;2022-12-16T03:12:54;61.88;;;22.95;;
36321;SDS011;23564;48.290;11.460;2022-12-16T03:15:22;56.40;;;22.33;;
36321;SDS011;23564;48.290;11.460;2022-12-16T03:17:50;53.58;;;23.02;;
36321;SDS011;23564;48.290;11.460;2022-12-16T03:20:20;57.33;;;22.08;;
36321;SDS011;23564;48.290;11.460;2022-12-16T03:22:51;58.63;;;22.83;;
36321;SDS011;23564;48.290;11.460;2022-12-16T03:25:21;54.92;;;21.33;;
36321;SDS011;23564;48.290;11.460;2022-12-16T03:30:36;59.38;;;22.50;;
36321;SDS011;23564;48.290;11.460;2022-12-16T03:33:28;57.40;;;22.17;;
36321;SDS011;23564;48.290;11.460;2022-12-16T03:36:04;52.25;;;21.70;;
36321;SDS011;23564;48.290;11.460;2022-12-16T03:38:34;50.63;;;22.92;;
36321;SDS011;23564;48.290;11.460;2022-12-16T03:41:02;53.75;;;22.73;;
36321;SDS011;23564;48.290;11.460;2022-12-16T03:43:29;61.00;;;25.23;;
36321;SDS011;23564;48.290;11.460;2022-12-16T03:45:55;55.20;;;23.73;;
36321;SDS011;23564;48.290;11.460;2022-12-16T03:48:25;59.70;;;23.13;;
36321;SDS011;23564;48.290;11.460;2022-12-16T03:50:50;59.88;;;24.30;;
36321;SDS011;23564;48.290;11.460;2022-12-16T03:53:16;64.25;;;25.27;;
36321;SDS011;23564;48.290;11.460;2022-12-16T03:55:42;61.55;;;24.13;;
36321;SDS011;23564;48.290;11.460;2022-12-16T03:58:08;63.10;;;25.30;;
36321;SDS011;23564;48.290;11.460;2022-12-16T04:00:34;64.90;;;25.45;;
36321;SDS011;23564;48.290;11.460;2022-12-16T04:03:00;63.38;;;25.80;;
36321;SDS011;23564;48.290;11.460;2022-12-16T04:05:25;76.80;;;27.83;;
36321;SDS011;23564;48.290;11.460;2022-12-16T04:07:51;72.18;;;29.85;;
36321;SDS011;23564;48.290;11.460;2022-12-16T04:10:17;69.38;;;26.92;;
36321;SDS011;23564;48.290;11.460;2022-12-16T04:13:02;74.00;;;28.92;;
36321;SDS011;23564;48.290;11.460;2022-12-16T04:15:46;76.43;;;30.55;;
36321;SDS011;23564;48.290;11.460;2022-12-16T04:18:31;70.85;;;28.08;;
36321;SDS011;23564;48.290;11.460;2022-12-16T04:21:16;82.78;;;29.98;;
36321;SDS011;23564;48.290;11.460;2022-12-16T04:24:00;74.55;;;29.92;;
36321;SDS011;23564;48.290;11.460;2022-12-16T04:26:44;75.00;;;30.33;;
36321;SDS011;23564;48.290;11.460;2022-12-16T04:29:30;80.50;;;31.15;;
36321;SDS011;23564;48.290;11.460;2022-12-16T04:31:56;71.75;;;28.08;;
36321;SDS011;23564;48.290;11.460;2022-12-16T04:34:22;73.57;;;28.77;;
36321;SDS011;23564;48.290;11.460;2022-12-16T04:36:53;75.57;;;28.48;;
36321;SDS011;23564;48.290;11.460;2022-12-16T04:39:39;78.40;;;29.88;;
36321;SDS011;23564;48.290;11.460;2022-12-16T04:42:23;78.60;;;29.00;;
36321;SDS011;23564;48.290;11.460;2022-12-16T04:45:07;76.13;;;29.38;;
36321;SDS011;23564;48.290;11.460;2022-12-16T04:47:52;67.70;;;27.35;;
36321;SDS011;23564;48.290;11.460;2022-12-16T04:50:37;95.85;;;45.60;;
36321;SDS011;23564;48.290;11.460;2022-12-16T04:53:22;73.75;;;30.02;;
36321;SDS011;23564;48.290;11.460;2022-12-16T04:56:06;74.75;;;29.02;;
36321;SDS011;23564;48.290;11.460;2022-12-16T04:58:50;83.30;;;29.05;;
36321;SDS011;23564;48.290;11.460;2022-12-16T05:01:34;64.82;;;26.67;;
36321;SDS011;23564;48.290;11.460;2022-12-16T05:04:18;71.32;;;27.08;;
36321;SDS011;23564;48.290;11.460;2022-12-16T05:07:02;68.53;;;27.27;;
36321;SDS011;23564;48.290;11.460;2022-12-16T05:09:46;79.30;;;28.75;;
36321;SDS011;23564;48.290;11.460;2022-12-16T05:12:31;69.82;;;27.20;;
36321;SDS011;23564;48.290;11.460;2022-12-16T05:15:15;70.90;;;28.25;;
36321;SDS011;23564;48.290;11.460;2022-12-16T05:18:06;76.43;;;29.85;;
36321;SDS011;23564;48.290;11.460;2022-12-16T05:21:00;66.63;;;26.77;;
36321;SDS011;23564;48.290;11.460;2022-12-16T05:23:44;76.45;;;29.48;;
36321;SDS011;23564;48.290;11.460;2022-12-16T05:26:29;74.80;;;29.52;;
36321;SDS011;23564;48.290;11.460;2022-12-16T05:29:14;74.30;;;29.38;;
36321;SDS011;23564;48.290;11.460;2022-12-16T05:31:58;71.53;;;27.50;;
36321;SDS011;23564;48.290;11.460;2022-12-16T05:34:42;79.68;;;31.55;;
36321;SDS011;23564;48.290;11.460;2022-12-16T05:37:26;71.95;;;31.25;;
36321;SDS011;23564;48.290;11.460;2022-12-16T05:40:11;74.68;;;31.60;;
36321;SDS011;23564;48.290;11.460;2022-12-16T05:42:55;77.88;;;29.75;;
36321;SDS011;23564;48.290;11.460;2022-12-16T05:45:39;76.05;;;29.13;;
36321;SDS011;23564;48.290;11.460;2022-12-16T05:48:43;71.43;;;27.20;;
36321;SDS011;23564;48.290;11.460;2022-12-16T05:51:27;69.43;;;27.55;;
36321;SDS011;23564;48.290;11.460;2022-12-16T05:54:11;75.78;;;29.02;;
36321;SDS011;23564;48.290;11.460;2022-12-16T05:56:56;82.28;;;30.33;;
36321;SDS011;23564;48.290;11.460;2022-12-16T05:59:47;71.50;;;27.53;;
36321;SDS011;23564;48.290;11.460;2022-12-16T06:02:31;71.75;;;28.40;;
36321;SDS011;23564;48.290;11.460;2022-12-16T06:05:15;72.93;;;28.00;;
36321;SDS011;23564;48.290;11.460;2022-12-16T06:08:07;69.70;;;27.77;;
36321;SDS011;23564;48.290;11.460;2022-12-16T06:11:02;72.95;;;28.50;;
36321;SDS011;23564;48.290;11.460;2022-12-16T06:13:46;73.07;;;28.65;;
36321;SDS011;23564;48.290;11.460;2022-12-16T06:16:35;80.22;;;28.27;;
36321;SDS011;23564;48.290;11.460;2022-12-16T06:19:19;72.50;;;27.45;;
36321;SDS011;23564;48.290;11.460;2022-12-16T06:22:03;68.95;;;26.85;;
36321;SDS011;23564;48.290;11.460;2022-12-16T06:24:47;74.13;;;27.80;;
36321;SDS011;23564;48.290;11.460;2022-12-16T06:27:31;70.38;;;28.40;;
36321;SDS011;23564;48.290;11.460;2022-12-16T06:30:15;75.38;;;29.48;;
36321;SDS011;23564;48.290;11.460;2022-12-16T06:32:59;78.85;;;31.27;;
36321;SDS011;23564;48.290;11.460;2022-12-16T06:35:43;72.28;;;28.83;;
36321;SDS011;23564;48.290;11.460;2022-12-16T06:38:27;72.70;;;29.42;;
36321;SDS011;23564;48.290;11.460;2022-12-16T06:41:11;74.75;;;29.25;;
36321;SDS011;23564;48.290;11.460;2022-12-16T06:43:55;74.53;;;28.30;;
36321;SDS011;23564;48.290;11.460;2022-12-16T06:46:39;67.95;;;28.15;;
36321;SDS011;23564;48.290;11.460;2022-12-16T06:49:23;83.97;;;30.73;;
36321;SDS011;23564;48.290;11.460;2022-12-16T06:52:07;73.57;;;28.20;;
36321;SDS011;23564;48.290;11.460;2022-12-16T06:54:51;72.35;;;27.55;;
36321;SDS011;23564;48.290;11.460;2022-12-16T06:57:35;72.32;;;27.77;;
36321;SDS011;23564;48.290;11.460;2022-12-16T07:00:19;89.03;;;32.30;;
36321;SDS011;23564;48.290;11.460;2022-12-16T07:03:04;92.38;;;34.47;;
36321;SDS011;23564;48.290;11.460;2022-12-16T07:05:51;74.63;;;30.10;;
36321;SDS011;23564;48.290;11.460;2022-12-16T07:08:36;82.10;;;30.75;;
36321;SDS011;23564;48.290;11.460;2022-12-16T07:11:20;139.98;;;45.88;;
36321;SDS011;23564;48.290;11.460;2022-12-16T07:14:04;200.20;;;57.63;;
36321;SDS011;23564;48.290;11.460;2022-12-16T07:16:48;218.35;;;60.10;;
36321;SDS011;23564;48.290;11.460;2022-12-16T07:19:32;172.73;;;50.00;;
36321;SDS011;23564;48.290;11.460;2022-12-16T07:22:16;91.78;;;36.08;;
36321;SDS011;23564;48.290;11.460;2022-12-16T07:25:00;101.38;;;40.75;;
36321;SDS011;23564;48.290;11.460;2022-12-16T07:27:45;73.82;;;29.33;;
36321;SDS011;23564;48.290;11.460;2022-12-16T07:30:29;75.57;;;29.42;;
36321;SDS011;23564;48.290;11.460;2022-12-16T07:33:13;66.35;;;26.70;;
36321;SDS011;23564;48.290;11.460;2022-12-16T07:35:57;73.50;;;28.33;;
36321;SDS011;23564;48.290;11.460;2022-12-16T07:38:42;65.57;;;27.20;;
36321;SDS011;23564;48.290;11.460;2022-12-16T07:41:26;68.75;;;26.40;;
36321;SDS011;23564;48.290;11.460;2022-12-16T07:44:10;70.57;;;28.08;;
36321;SDS011;23564;48.290;11.460;2022-12-16T07:46:54;69.85;;;29.13;;
36321;SDS011;23564;48.290;11.460;2022-12-16T07:49:38;79.07;;;32.80;;
36321;SDS011;23564;48.290;11.460;2022-12-16T07:52:22;66.32;;;27.52;;
36321;SDS011;23564;48.290;11.460;2022-12-16T07:55:06;74.38;;;28.80;;
36321;SDS011;23564;48.290;11.460;2022-12-16T07:57:50;61.00;;;25.08;;
36321;SDS011;23564;48.290;11.460;2022-12-16T08:00:34;74.13;;;29.88;;
36321;SDS011;23564;48.290;11.460;2022-12-16T08:03:18;66.40;;;25.75;;
36321;SDS011;23564;48.290;11.460;2022-12-16T08:06:02;66.00;;;26.05;;
36321;SDS011;23564;48.290;11.460;2022-12-16T08:08:47;62.10;;;26.33;;
36321;SDS011;23564;48.290;11.460;2022-12-16T08:11:31;68.63;;;25.95;;
36321;SDS011;23564;48.290;11.460;2022-12-16T08:14:15;65.82;;;26.35;;
36321;SDS011;23564;48.290;11.460;2022-12-16T08:16:59;64.72;;;25.77;;
36321;SDS011;23564;48.290;11.460;2022-12-16T08:19:43;71.10;;;28.00;;
36321;SDS011;23564;48.290;11.460;2022-12-16T08:22:27;65.00;;;26.73;;
36321;SDS011;23564;48.290;11.460;2022-12-16T08:25:11;64.72;;;26.88;;
36321;SDS011;23564;48.290;11.460;2022-12-16T08:27:55;65.63;;;25.25;;
36321;SDS011;23564;48.290;11.460;2022-12-16T08:30:39;60.33;;;24.50;;
36321;SDS011;23564;48.290;11.460;2022-12-16T08:33:23;72.43;;;26.80;;
36321;SDS011;23564;48.290;11.460;2022-12-16T08:36:07;67.88;;;26.52;;
36321;SDS011;23564;48.290;11.460;2022-12-16T08:38:52;63.70;;;27.88;;
36321;SDS011;23564;48.290;11.460;2022-12-16T08:41:36;71.85;;;27.50;;
36321;SDS011;23564;48.290;11.460;2022-12-16T08:44:20;68.82;;;26.77;;
36321;SDS011;23564;48.290;11.460;2022-12-16T08:47:04;67.82;;;26.60;;
36321;SDS011;23564;48.290;11.460;2022-12-16T08:49:48;64.65;;;26.52;;
36321;SDS011;23564;48.290;11.460;2022-12-16T08:52:32;66.60;;;26.02;;
36321;SDS011;23564;48.290;11.460;2022-12-16T08:55:16;68.47;;;27.77;;
36321;SDS011;23564;48.290;11.460;2022-12-16T08:58:00;66.28;;;27.92;;
36321;SDS011;23564;48.290;11.460;2022-12-16T09:00:44;60.30;;;24.75;;
36321;SDS011;23564;48.290;11.460;2022-12-16T09:03:28;62.22;;;24.95;;
36321;SDS011;23564;48.290;11.460;2022-12-16T09:06:12;62.60;;;27.17;;
36321;SDS011;23564;48.290;11.460;2022-12-16T09:08:56;59.78;;;23.98;;
36321;SDS011;23564;48.290;11.460;2022-12-16T09:11:40;64.80;;;25.08;;
36321;SDS011;23564;48.290;11.460;2022-12-16T09:14:25;63.38;;;24.60;;
36321;SDS011;23564;48.290;11.460;2022-12-16T09:17:09;57.92;;;25.00;;
36321;SDS011;23564;48.290;11.460;2022-12-16T09:19:53;61.97;;;26.45;;
36321;SDS011;23564;48.290;11.460;2022-12-16T09:22:37;56.35;;;24.55;;
36321;SDS011;23564;48.290;11.460;2022-12-16T09:25:21;57.92;;;24.98;;
36321;SDS011;23564;48.290;11.460;2022-12-16T09:28:05;62.38;;;24.67;;
36321;SDS011;23564;48.290;11.460;2022-12-16T09:30:50;57.72;;;25.10;;
36321;SDS011;23564;48.290;11.460;2022-12-16T09:33:34;60.05;;;25.88;;
36321;SDS011;23564;48.290;11.460;2022-12-16T09:36:18;60.75;;;26.33;;
36321;SDS011;23564;48.290;11.460;2022-12-16T09:39:02;61.35;;;25.08;;
36321;SDS011;23564;48.290;11.460;2022-12-16T09:48:37;59.85;;;23.98;;
36321;SDS011;23564;48.290;11.460;2022-12-16T09:51:32;57.13;;;23.35;;
36321;SDS011;23564;48.290;11.460;2022-12-16T09:54:19;57.22;;;23.70;;
36321;SDS011;23564;48.290;11.460;2022-12-16T09:57:09;61.33;;;25.05;;
36321;SDS011;23564;48.290;11.460;2022-12-16T09:59:56;62.80;;;24.80;;
36321;SDS011;23564;48.290;11.460;2022-12-16T10:02:44;55.67;;;23.13;;
36321;SDS011;23564;48.290;11.460;2022-12-16T10:05:37;55.90;;;22.77;;
36321;SDS011;23564;48.290;11.460;2022-12-16T10:08:43;58.53;;;24.03;;
36321;SDS011;23564;48.290;11.460;2022-12-16T10:14:48;64.10;;;24.58;;
36321;SDS011;23564;48.290;11.460;2022-12-16T10:17:42;59.35;;;24.33;;
36321;SDS011;23564;48.290;11.460;2022-12-16T10:20:50;60.75;;;24.30;;
36321;SDS011;23564;48.290;11.460;2022-12-16T10:23:38;54.45;;;21.20;;
36321;SDS011;23564;48.290;11.460;2022-12-16T10:26:48;55.10;;;24.40;;
36321;SDS011;23564;48.290;11.460;2022-12-16T10:29:50;61.65;;;26.38;;
36321;SDS011;23564;48.290;11.460;2022-12-16T10:32:54;55.30;;;23.83;;
36321;SDS011;23564;48.290;11.460;2022-12-16T10:35:48;52.58;;;23.95;;
36321;SDS011;23564;48.290;11.460;2022-12-16T10:41:26;55.75;;;23.10;;
36321;SDS011;23564;48.290;11.460;2022-12-16T10:44:36;58.92;;;25.13;;
36321;SDS011;23564;48.290;11.460;2022-12-16T10:47:34;74.47;;;29.20;;
36321;SDS011;23564;48.290;11.460;2022-12-16T10:50:18;58.55;;;23.42;;
36321;SDS011;23564;48.290;11.460;2022-12-16T10:53:03;56.00;;;23.77;;
36321;SDS011;23564;48.290;11.460;2022-12-16T10:59:33;55.28;;;22.10;;
36321;SDS011;23564;48.290;11.460;2022-12-16T11:02:20;57.53;;;24.17;;
36321;SDS011;23564;48.290;11.460;2022-12-16T11:05:28;77.85;;;27.20;;
36321;SDS011;23564;48.290;11.460;2022-12-16T11:08:27;72.75;;;25.80;;
36321;SDS011;23564;48.290;11.460;2022-12-16T11:11:20;79.22;;;27.67;;
36321;SDS011;23564;48.290;11.460;2022-12-16T11:14:24;106.35;;;36.72;;
36321;SDS011;23564;48.290;11.460;2022-12-16T11:17:12;90.50;;;32.45;;
36321;SDS011;23564;48.290;11.460;2022-12-16T11:20:11;70.25;;;26.55;;
36321;SDS011;23564;48.290;11.460;2022-12-16T11:29:08;60.15;;;24.25;;
36321;SDS011;23564;48.290;11.460;2022-12-16T11:32:19;54.22;;;24.95;;
36321;SDS011;23564;48.290;11.460;2022-12-16T11:35:10;45.88;;;20.65;;
36321;SDS011;23564;48.290;11.460;2022-12-16T11:37:58;60.83;;;22.95;;
36321;SDS011;23564;48.290;11.460;2022-12-16T11:40:45;49.17;;;21.90;;
36321;SDS011;23564;48.290;11.460;2022-12-16T11:43:35;50.35;;;21.65;;
36321;SDS011;23564;48.290;11.460;2022-12-16T11:46:25;52.85;;;22.67;;
36321;SDS011;23564;48.290;11.460;2022-12-16T11:49:13;49.85;;;21.48;;
36321;SDS011;23564;48.290;11.460;2022-12-16T11:52:28;56.47;;;23.20;;
36321;SDS011;23564;48.290;11.460;2022-12-16T11:55:26;55.42;;;23.92;;
36321;SDS011;23564;48.290;11.460;2022-12-16T11:58:16;54.17;;;22.70;;
36321;SDS011;23564;48.290;11.460;2022-12-16T12:01:13;51.15;;;20.95;;
36321;SDS011;23564;48.290;11.460;2022-12-16T12:04:25;51.00;;;22.05;;
36321;SDS011;23564;48.290;11.460;2022-12-16T12:07:23;48.10;;;21.67;;
36321;SDS011;23564;48.290;11.460;2022-12-16T12:10:41;49.17;;;21.00;;
36321;SDS011;23564;48.290;11.460;2022-12-16T12:13:37;47.33;;;19.92;;
36321;SDS011;23564;48.290;11.460;2022-12-16T12:16:55;43.25;;;20.02;;
36321;SDS011;23564;48.290;11.460;2022-12-16T12:19:45;50.88;;;21.30;;
36321;SDS011;23564;48.290;11.460;2022-12-16T12:22:42;45.65;;;20.30;;
36321;SDS011;23564;48.290;11.460;2022-12-16T12:25:36;48.05;;;20.40;;
36321;SDS011;23564;48.290;11.460;2022-12-16T12:28:58;42.53;;;19.08;;
36321;SDS011;23564;48.290;11.460;2022-12-16T12:32:11;43.03;;;19.90;;
36321;SDS011;23564;48.290;11.460;2022-12-16T12:38:18;46.42;;;20.23;;
36321;SDS011;23564;48.290;11.460;2022-12-16T12:41:18;45.42;;;20.77;;
36321;SDS011;23564;48.290;11.460;2022-12-16T12:47:18;42.60;;;18.92;;
36321;SDS011;23564;48.290;11.460;2022-12-16T12:50:05;57.92;;;26.73;;
36321;SDS011;23564;48.290;11.460;2022-12-16T12:53:09;40.63;;;19.70;;
36321;SDS011;23564;48.290;11.460;2022-12-16T12:56:06;42.92;;;18.33;;
36321;SDS011;23564;48.290;11.460;2022-12-16T12:59:18;44.28;;;20.25;;
36321;SDS011;23564;48.290;11.460;2022-12-16T13:02:26;48.15;;;21.80;;
36321;SDS011;23564;48.290;11.460;2022-12-16T13:05:18;48.45;;;20.70;;
36321;SDS011;23564;48.290;11.460;2022-12-16T13:11:21;47.00;;;20.77;;
36321;SDS011;23564;48.290;11.460;2022-12-16T13:17:17;48.13;;;21.13;;
36321;SDS011;23564;48.290;11.460;2022-12-16T13:26:15;47.17;;;19.67;;
36321;SDS011;23564;48.290;11.460;2022-12-16T13:29:07;47.47;;;21.42;;
36321;SDS011;23564;48.290;11.460;2022-12-16T13:32:01;47.60;;;21.17;;
36321;SDS011;23564;48.290;11.460;2022-12-16T13:34:58;48.15;;;20.23;;
36321;SDS011;23564;48.290;11.460;2022-12-16T13:37:52;46.45;;;20.27;;
36321;SDS011;23564;48.290;11.460;2022-12-16T13:40:57;47.88;;;19.80;;
36321;SDS011;23564;48.290;11.460;2022-12-16T13:43:46;45.55;;;19.38;;
36321;SDS011;23564;48.290;11.460;2022-12-16T13:52:23;40.75;;;19.30;;
36321;SDS011;23564;48.290;11.460;2022-12-16T13:55:23;44.80;;;19.27;;
36321;SDS011;23564;48.290;11.460;2022-12-16T13:58:31;40.45;;;18.83;;
36321;SDS011;23564;48.290;11.460;2022-12-16T14:01:42;42.47;;;19.13;;
36321;SDS011;23564;48.290;11.460;2022-12-16T14:04:45;39.13;;;18.17;;
36321;SDS011;23564;48.290;11.460;2022-12-16T14:07:34;42.63;;;17.58;;
36321;SDS011;23564;48.290;11.460;2022-12-16T14:10:35;42.55;;;17.27;;
36321;SDS011;23564;48.290;11.460;2022-12-16T14:13:36;42.13;;;19.17;;
36321;SDS011;23564;48.290;11.460;2022-12-16T14:16:44;42.65;;;18.80;;
36321;SDS011;23564;48.290;11.460;2022-12-16T14:25:55;60.08;;;24.70;;
36321;SDS011;23564;48.290;11.460;2022-12-16T14:28:41;52.40;;;23.20;;
36321;SDS011;23564;48.290;11.460;2022-12-16T14:31:28;44.47;;;18.95;;
36321;SDS011;23564;48.290;11.460;2022-12-16T14:34:22;49.17;;;19.25;;
36321;SDS011;23564;48.290;11.460;2022-12-16T14:39:55;39.63;;;17.88;;
36321;SDS011;23564;48.290;11.460;2022-12-16T14:42:39;46.97;;;20.08;;
36321;SDS011;23564;48.290;11.460;2022-12-16T14:45:27;43.58;;;19.35;;
36321;SDS011;23564;48.290;11.460;2022-12-16T14:48:33;39.63;;;18.33;;
36321;SDS011;23564;48.290;11.460;2022-12-16T14:51:21;39.83;;;18.23;;
36321;SDS011;23564;48.290;11.460;2022-12-16T14:54:15;50.97;;;20.13;;
36321;SDS011;23564;48.290;11.460;2022-12-16T14:57:04;55.95;;;20.60;;
36321;SDS011;23564;48.290;11.460;2022-12-16T15:00:00;42.53;;;17.65;;
36321;SDS011;23564;48.290;11.460;2022-12-16T15:02:47;46.15;;;18.30;;
36321;SDS011;23564;48.290;11.460;2022-12-16T15:05:33;49.22;;;19.48;;
36321;SDS011;23564;48.290;11.460;2022-12-16T15:08:20;44.40;;;18.35;;
36321;SDS011;23564;48.290;11.460;2022-12-16T15:11:05;50.85;;;20.25;;
36321;SDS011;23564;48.290;11.460;2022-12-16T15:13:56;41.97;;;17.75;;
36321;SDS011;23564;48.290;11.460;2022-12-16T15:16:42;42.15;;;18.75;;
36321;SDS011;23564;48.290;11.460;2022-12-16T15:19:31;47.45;;;18.83;;
36321;SDS011;23564;48.290;11.460;2022-12-16T15:22:21;40.60;;;18.02;;
36321;SDS011;23564;48.290;11.460;2022-12-16T15:25:05;44.17;;;18.42;;
36321;SDS011;23564;48.290;11.460;2022-12-16T15:27:53;46.22;;;19.27;;
36321;SDS011;23564;48.290;11.460;2022-12-16T15:30:39;44.58;;;19.60;;
36321;SDS011;23564;48.290;11.460;2022-12-16T15:33:26;49.88;;;21.85;;
36321;SDS011;23564;48.290;11.460;2022-12-16T15:36:31;56.33;;;22.98;;
36321;SDS011;23564;48.290;11.460;2022-12-16T15:42:19;50.63;;;22.17;;
36321;SDS011;23564;48.290;11.460;2022-12-16T15:45:29;49.50;;;21.10;;
36321;SDS011;23564;48.290;11.460;2022-12-16T15:48:19;45.42;;;20.50;;
36321;SDS011;23564;48.290;11.460;2022-12-16T15:51:20;44.05;;;18.85;;
36321;SDS011;23564;48.290;11.460;2022-12-16T15:54:16;37.63;;;16.85;;
36321;SDS011;23564;48.290;11.460;2022-12-16T15:57:02;39.17;;;17.67;;
36321;SDS011;23564;48.290;11.460;2022-12-16T16:00:16;40.70;;;17.35;;
36321;SDS011;23564;48.290;11.460;2022-12-16T16:03:18;35.45;;;16.63;;
36321;SDS011;23564;48.290;11.460;2022-12-16T16:06:16;41.10;;;16.65;;
36321;SDS011;23564;48.290;11.460;2022-12-16T16:09:15;37.65;;;18.35;;
36321;SDS011;23564;48.290;11.460;2022-12-16T16:12:10;41.65;;;18.48;;
36321;SDS011;23564;48.290;11.460;2022-12-16T16:14:56;40.90;;;16.48;;
36321;SDS011;23564;48.290;11.460;2022-12-16T16:17:40;42.60;;;16.45;;
36321;SDS011;23564;48.290;11.460;2022-12-16T16:20:25;37.65;;;17.27;;
36321;SDS011;23564;48.290;11.460;2022-12-16T16:23:09;37.13;;;17.15;;
36321;SDS011;23564;48.290;11.460;2022-12-16T16:25:53;40.20;;;17.33;;
36321;SDS011;23564;48.290;11.460;2022-12-16T16:28:38;35.63;;;16.92;;
36321;SDS011;23564;48.290;11.460;2022-12-16T16:31:23;39.95;;;17.55;;
36321;SDS011;23564;48.290;11.460;2022-12-16T16:34:07;37.95;;;16.98;;
36321;SDS011;23564;48.290;11.460;2022-12-16T16:36:54;39.22;;;18.50;;
36321;SDS011;23564;48.290;11.460;2022-12-16T16:39:59;46.45;;;18.50;;
36321;SDS011;23564;48.290;11.460;2022-12-16T16:42:44;40.58;;;19.67;;
36321;SDS011;23564;48.290;11.460;2022-12-16T16:45:28;40.75;;;17.77;;
36321;SDS011;23564;48.290;11.460;2022-12-16T16:48:13;40.95;;;19.13;;
36321;SDS011;23564;48.290;11.460;2022-12-16T16:51:01;40.55;;;16.88;;
36321;SDS011;23564;48.290;11.460;2022-12-16T16:53:46;40.00;;;16.90;;
36321;SDS011;23564;48.290;11.460;2022-12-16T16:56:32;43.33;;;19.48;;
36321;SDS011;23564;48.290;11.460;2022-12-16T16:59:17;47.78;;;19.88;;
36321;SDS011;23564;48.290;11.460;2022-12-16T17:05:03;43.28;;;18.35;;
36321;SDS011;23564;48.290;11.460;2022-12-16T17:07:47;43.95;;;18.77;;